sensor_id;sensor_type;location;lat;lon;timestamp;temperature;humidity
74458;SHT31;62896;51.032;3.712;2023-05-09T00:03:11;14.6;88
74458;SHT31;62896;51.032;3.712;2023-05-09T00:06:31;14.5;88
74458;SHT31;62896;51.032;3.712;2023-05-09T00:09:51;14.5;88
74458;SHT31;62896;51.032;3.712;2023-05-09T00:13:11;14.5;88
74458;SHT31;62896;51.032;3.712;2023-05-09T00:16:31;14.5;89
74458;SHT31;62896;51.032;3.712;2023-05-09T00:19:51;14.5;89
74458;SHT31;62896;51.032;3.712;2023-05-09T00:23:11;14.5;89
74458;SHT31;62896;51.032;3.712;2023-05-09T00:26:31;14.5;89
74458;SHT31;62896;51.032;3.712;2023-05-09T00:29:51;14.5;89
74458;SHT31;62896;51.032;3.712;2023-05-09T00:33:11;14.5;89
74458;SHT31;62896;51.032;3.712;2023-05-09T00:36:31;14.5;89
74458;SHT31;62896;51.032;3.712;2023-05-09T00:39:51;14.5;89
74458;SHT31;62896;51.032;3.712;2023-05-09T00:43:11;14.5;89
74458;SHT31;62896;51.032;3.712;2023-05-09T00:46:31;14.5;89
74458;SHT31;62896;51.032;3.712;2023-05-09T00:49:51;14.5;89
74458;SHT31;62896;51.032;3.712;2023-05-09T00:53:11;14.5;89
74458;SHT31;62896;51.032;3.712;2023-05-09T00:56:31;14.5;89
74458;SHT31;62896;51.032;3.712;2023-05-09T00:59:51;14.5;89
74458;SHT31;62896;51.032;3.712;2023-05-09T01:03:11;14.5;89
74458;SHT31;62896;51.032;3.712;2023-05-09T01:06:32;14.5;89
74458;SHT31;62896;51.032;3.712;2023-05-09T01:09:54;14.5;89
74458;SHT31;62896;51.032;3.712;2023-05-09T01:13:14;14.5;89
74458;SHT31;62896;51.032;3.712;2023-05-09T01:16:34;14.5;89
74458;SHT31;62896;51.032;3.712;2023-05-09T01:19:53;14.5;89
74458;SHT31;62896;51.032;3.712;2023-05-09T01:23:17;14.5;89
74458;SHT31;62896;51.032;3.712;2023-05-09T01:26:35;14.4;89
74458;SHT31;62896;51.032;3.712;2023-05-09T01:29:54;14.4;89
74458;SHT31;62896;51.032;3.712;2023-05-09T01:33:12;14.4;89
74458;SHT31;62896;51.032;3.712;2023-05-09T01:36:31;14.4;89
74458;SHT31;62896;51.032;3.712;2023-05-09T01:39:52;14.4;89
74458;SHT31;62896;51.032;3.712;2023-05-09T01:43:11;14.4;89
74458;SHT31;62896;51.032;3.712;2023-05-09T01:46:31;14.5;89
74458;SHT31;62896;51.032;3.712;2023-05-09T01:49:51;14.5;89
74458;SHT31;62896;51.032;3.712;2023-05-09T01:53:11;14.5;89
74458;SHT31;62896;51.032;3.712;2023-05-09T01:56:31;14.5;88
74458;SHT31;62896;51.032;3.712;2023-05-09T01:59:51;14.5;88
74458;SHT31;62896;51.032;3.712;2023-05-09T02:03:11;14.5;88
74458;SHT31;62896;51.032;3.712;2023-05-09T02:06:31;14.6;88
74458;SHT31;62896;51.032;3.712;2023-05-09T02:09:51;14.6;88
74458;SHT31;62896;51.032;3.712;2023-05-09T02:13:11;14.6;88
74458;SHT31;62896;51.032;3.712;2023-05-09T02:16:31;14.6;88
74458;SHT31;62896;51.032;3.712;2023-05-09T02:19:51;14.6;88
74458;SHT31;62896;51.032;3.712;2023-05-09T02:23:11;14.6;88
74458;SHT31;62896;51.032;3.712;2023-05-09T02:26:31;14.5;88
74458;SHT31;62896;51.032;3.712;2023-05-09T02:29:53;14.5;88
74458;SHT31;62896;51.032;3.712;2023-05-09T02:33:12;14.5;88
74458;SHT31;62896;51.032;3.712;2023-05-09T02:36:31;14.6;88
74458;SHT31;62896;51.032;3.712;2023-05-09T02:39:51;14.6;88
74458;SHT31;62896;51.032;3.712;2023-05-09T02:43:11;14.6;88
74458;SHT31;62896;51.032;3.712;2023-05-09T02:46:31;14.6;88
74458;SHT31;62896;51.032;3.712;2023-05-09T02:49:51;14.6;88
74458;SHT31;62896;51.032;3.712;2023-05-09T02:53:11;14.6;88
74458;SHT31;62896;51.032;3.712;2023-05-09T02:56:31;14.6;88
74458;SHT31;62896;51.032;3.712;2023-05-09T02:59:51;14.6;88
74458;SHT31;62896;51.032;3.712;2023-05-09T03:03:11;14.6;88
74458;SHT31;62896;51.032;3.712;2023-05-09T03:06:31;14.6;88
74458;SHT31;62896;51.032;3.712;2023-05-09T03:09:51;14.6;88
74458;SHT31;62896;51.032;3.712;2023-05-09T03:13:11;14.6;88
74458;SHT31;62896;51.032;3.712;2023-05-09T03:16:31;14.6;89
74458;SHT31;62896;51.032;3.712;2023-05-09T03:19:51;14.6;89
74458;SHT31;62896;51.032;3.712;2023-05-09T03:23:11;14.6;89
74458;SHT31;62896;51.032;3.712;2023-05-09T03:26:31;14.5;90
74458;SHT31;62896;51.032;3.712;2023-05-09T03:29:51;14.5;90
74458;SHT31;62896;51.032;3.712;2023-05-09T03:33:11;14.5;90
74458;SHT31;62896;51.032;3.712;2023-05-09T03:36:31;14.4;91
74458;SHT31;62896;51.032;3.712;2023-05-09T03:39:51;14.4;91
74458;SHT31;62896;51.032;3.712;2023-05-09T03:43:11;14.4;91
74458;SHT31;62896;51.032;3.712;2023-05-09T03:46:31;14.3;92
74458;SHT31;62896;51.032;3.712;2023-05-09T03:49:51;14.3;92
74458;SHT31;62896;51.032;3.712;2023-05-09T03:53:11;14.3;92
74458;SHT31;62896;51.032;3.712;2023-05-09T03:56:31;14.2;92
74458;SHT31;62896;51.032;3.712;2023-05-09T03:59:51;14.2;92
74458;SHT31;62896;51.032;3.712;2023-05-09T04:03:11;14.2;92
74458;SHT31;62896;51.032;3.712;2023-05-09T04:06:32;14.2;92
74458;SHT31;62896;51.032;3.712;2023-05-09T04:09:51;14.2;92
74458;SHT31;62896;51.032;3.712;2023-05-09T04:13:11;14.2;92
74458;SHT31;62896;51.032;3.712;2023-05-09T04:16:31;14.2;92
74458;SHT31;62896;51.032;3.712;2023-05-09T04:19:51;14.2;92
74458;SHT31;62896;51.032;3.712;2023-05-09T04:23:11;14.2;92
74458;SHT31;62896;51.032;3.712;2023-05-09T04:26:31;14.2;92
74458;SHT31;62896;51.032;3.712;2023-05-09T04:29:51;14.2;92
74458;SHT31;62896;51.032;3.712;2023-05-09T04:33:11;14.2;92
74458;SHT31;62896;51.032;3.712;2023-05-09T04:36:31;14.2;92
74458;SHT31;62896;51.032;3.712;2023-05-09T04:39:51;14.2;92
74458;SHT31;62896;51.032;3.712;2023-05-09T04:43:11;14.2;92
74458;SHT31;62896;51.032;3.712;2023-05-09T04:46:31;14.2;92
74458;SHT31;62896;51.032;3.712;2023-05-09T04:49:51;14.2;92
74458;SHT31;62896;51.032;3.712;2023-05-09T04:53:11;14.2;92
74458;SHT31;62896;51.032;3.712;2023-05-09T04:56:31;14.3;92
74458;SHT31;62896;51.032;3.712;2023-05-09T04:59:51;14.3;92
74458;SHT31;62896;51.032;3.712;2023-05-09T05:03:11;14.3;92
74458;SHT31;62896;51.032;3.712;2023-05-09T05:06:31;14.3;92
74458;SHT31;62896;51.032;3.712;2023-05-09T05:09:51;14.3;92
74458;SHT31;62896;51.032;3.712;2023-05-09T05:13:11;14.3;92
74458;SHT31;62896;51.032;3.712;2023-05-09T05:16:31;14.3;92
74458;SHT31;62896;51.032;3.712;2023-05-09T05:19:51;14.3;92
74458;SHT31;62896;51.032;3.712;2023-05-09T05:23:11;14.3;92
74458;SHT31;62896;51.032;3.712;2023-05-09T05:26:31;14.3;93
74458;SHT31;62896;51.032;3.712;2023-05-09T05:29:51;14.3;93
74458;SHT31;62896;51.032;3.712;2023-05-09T05:33:11;14.3;93
74458;SHT31;62896;51.032;3.712;2023-05-09T05:36:31;14.3;93
74458;SHT31;62896;51.032;3.712;2023-05-09T05:39:51;14.3;93
74458;SHT31;62896;51.032;3.712;2023-05-09T05:43:11;14.3;93
74458;SHT31;62896;51.032;3.712;2023-05-09T05:46:31;14.4;93
74458;SHT31;62896;51.032;3.712;2023-05-09T05:49:51;14.4;93
74458;SHT31;62896;51.032;3.712;2023-05-09T05:53:11;14.4;93
74458;SHT31;62896;51.032;3.712;2023-05-09T05:56:31;14.5;94
74458;SHT31;62896;51.032;3.712;2023-05-09T05:59:51;14.5;94
74458;SHT31;62896;51.032;3.712;2023-05-09T06:03:11;14.5;94
74458;SHT31;62896;51.032;3.712;2023-05-09T06:06:31;14.5;94
74458;SHT31;62896;51.032;3.712;2023-05-09T06:09:51;14.5;94
74458;SHT31;62896;51.032;3.712;2023-05-09T06:13:11;14.5;94
74458;SHT31;62896;51.032;3.712;2023-05-09T06:16:31;14.8;94
74458;SHT31;62896;51.032;3.712;2023-05-09T06:19:51;14.8;94
74458;SHT31;62896;51.032;3.712;2023-05-09T06:23:11;14.8;94
74458;SHT31;62896;51.032;3.712;2023-05-09T06:26:31;14.8;94
74458;SHT31;62896;51.032;3.712;2023-05-09T06:29:51;14.8;94
74458;SHT31;62896;51.032;3.712;2023-05-09T06:33:11;14.8;94
74458;SHT31;62896;51.032;3.712;2023-05-09T06:36:31;14.7;94
74458;SHT31;62896;51.032;3.712;2023-05-09T06:39:51;14.7;94
74458;SHT31;62896;51.032;3.712;2023-05-09T06:43:11;14.7;94
74458;SHT31;62896;51.032;3.712;2023-05-09T06:46:31;14.8;94
74458;SHT31;62896;51.032;3.712;2023-05-09T06:49:51;14.8;94
74458;SHT31;62896;51.032;3.712;2023-05-09T06:53:11;14.8;94
74458;SHT31;62896;51.032;3.712;2023-05-09T06:56:31;14.8;94
74458;SHT31;62896;51.032;3.712;2023-05-09T06:59:51;14.8;94
74458;SHT31;62896;51.032;3.712;2023-05-09T07:03:11;14.8;94
74458;SHT31;62896;51.032;3.712;2023-05-09T07:06:31;14.8;94
74458;SHT31;62896;51.032;3.712;2023-05-09T07:09:51;14.8;94
74458;SHT31;62896;51.032;3.712;2023-05-09T07:13:11;14.8;94
74458;SHT31;62896;51.032;3.712;2023-05-09T07:16:31;14.8;94
74458;SHT31;62896;51.032;3.712;2023-05-09T07:19:51;14.8;94
74458;SHT31;62896;51.032;3.712;2023-05-09T07:23:11;14.8;94
74458;SHT31;62896;51.032;3.712;2023-05-09T07:26:31;14.9;94
74458;SHT31;62896;51.032;3.712;2023-05-09T07:29:51;14.9;94
74458;SHT31;62896;51.032;3.712;2023-05-09T07:33:11;14.9;94
74458;SHT31;62896;51.032;3.712;2023-05-09T07:36:31;14.9;94
74458;SHT31;62896;51.032;3.712;2023-05-09T07:39:51;14.9;94
74458;SHT31;62896;51.032;3.712;2023-05-09T07:43:11;14.9;94
74458;SHT31;62896;51.032;3.712;2023-05-09T07:46:31;14.9;95
74458;SHT31;62896;51.032;3.712;2023-05-09T07:49:51;14.9;95
74458;SHT31;62896;51.032;3.712;2023-05-09T07:53:11;14.9;95
74458;SHT31;62896;51.032;3.712;2023-05-09T07:56:31;14.9;95
74458;SHT31;62896;51.032;3.712;2023-05-09T07:59:51;14.9;95
74458;SHT31;62896;51.032;3.712;2023-05-09T08:03:11;14.9;95
74458;SHT31;62896;51.032;3.712;2023-05-09T08:06:31;14.8;95
74458;SHT31;62896;51.032;3.712;2023-05-09T08:09:51;14.8;95
74458;SHT31;62896;51.032;3.712;2023-05-09T08:13:11;14.8;95
74458;SHT31;62896;51.032;3.712;2023-05-09T08:16:31;14.9;95
74458;SHT31;62896;51.032;3.712;2023-05-09T08:19:51;14.9;95
74458;SHT31;62896;51.032;3.712;2023-05-09T08:23:11;14.9;95
74458;SHT31;62896;51.032;3.712;2023-05-09T08:26:31;14.9;94
74458;SHT31;62896;51.032;3.712;2023-05-09T08:29:51;14.9;94
74458;SHT31;62896;51.032;3.712;2023-05-09T08:33:11;14.9;94
74458;SHT31;62896;51.032;3.712;2023-05-09T08:36:31;14.9;94
74458;SHT31;62896;51.032;3.712;2023-05-09T08:39:51;14.9;94
74458;SHT31;62896;51.032;3.712;2023-05-09T08:43:12;14.9;94
74458;SHT31;62896;51.032;3.712;2023-05-09T08:46:33;14.9;94
74458;SHT31;62896;51.032;3.712;2023-05-09T08:49:51;14.9;94
74458;SHT31;62896;51.032;3.712;2023-05-09T08:53:11;14.9;94
74458;SHT31;62896;51.032;3.712;2023-05-09T08:56:31;14.8;95
74458;SHT31;62896;51.032;3.712;2023-05-09T08:59:52;14.8;95
74458;SHT31;62896;51.032;3.712;2023-05-09T09:03:11;14.8;95
74458;SHT31;62896;51.032;3.712;2023-05-09T09:06:32;14.9;94
74458;SHT31;62896;51.032;3.712;2023-05-09T09:09:51;14.9;94
74458;SHT31;62896;51.032;3.712;2023-05-09T09:13:12;14.9;94
74458;SHT31;62896;51.032;3.712;2023-05-09T09:16:31;14.9;94
74458;SHT31;62896;51.032;3.712;2023-05-09T09:19:52;14.9;94
74458;SHT31;62896;51.032;3.712;2023-05-09T09:23:11;14.9;94
74458;SHT31;62896;51.032;3.712;2023-05-09T09:26:31;14.8;95
74458;SHT31;62896;51.032;3.712;2023-05-09T09:29:51;14.8;95
74458;SHT31;62896;51.032;3.712;2023-05-09T09:33:17;14.8;95
74458;SHT31;62896;51.032;3.712;2023-05-09T09:36:31;14.6;94
74458;SHT31;62896;51.032;3.712;2023-05-09T09:39:53;14.6;94
74458;SHT31;62896;51.032;3.712;2023-05-09T09:43:11;14.6;94
74458;SHT31;62896;51.032;3.712;2023-05-09T09:46:39;14.5;94
74458;SHT31;62896;51.032;3.712;2023-05-09T09:49:52;14.5;94
74458;SHT31;62896;51.032;3.712;2023-05-09T09:53:11;14.5;94
74458;SHT31;62896;51.032;3.712;2023-05-09T09:56:39;14.4;94
74458;SHT31;62896;51.032;3.712;2023-05-09T09:59:56;14.4;94
74458;SHT31;62896;51.032;3.712;2023-05-09T10:03:13;14.4;94
74458;SHT31;62896;51.032;3.712;2023-05-09T10:06:32;14.6;94
74458;SHT31;62896;51.032;3.712;2023-05-09T10:09:51;14.6;94
74458;SHT31;62896;51.032;3.712;2023-05-09T10:13:11;14.6;94
74458;SHT31;62896;51.032;3.712;2023-05-09T10:16:31;14.6;95
74458;SHT31;62896;51.032;3.712;2023-05-09T10:19:51;14.6;95
74458;SHT31;62896;51.032;3.712;2023-05-09T10:23:11;14.6;95
74458;SHT31;62896;51.032;3.712;2023-05-09T10:26:31;14.6;95
74458;SHT31;62896;51.032;3.712;2023-05-09T10:29:55;14.6;95
74458;SHT31;62896;51.032;3.712;2023-05-09T10:33:11;14.6;95
74458;SHT31;62896;51.032;3.712;2023-05-09T10:36:31;14.6;94
74458;SHT31;62896;51.032;3.712;2023-05-09T10:39:52;14.6;94
74458;SHT31;62896;51.032;3.712;2023-05-09T10:43:12;14.6;94
74458;SHT31;62896;51.032;3.712;2023-05-09T10:46:31;14.6;94
74458;SHT31;62896;51.032;3.712;2023-05-09T10:49:52;14.6;94
74458;SHT31;62896;51.032;3.712;2023-05-09T10:53:12;14.6;94
74458;SHT31;62896;51.032;3.712;2023-05-09T10:56:32;14.7;95
74458;SHT31;62896;51.032;3.712;2023-05-09T10:59:52;14.7;95
74458;SHT31;62896;51.032;3.712;2023-05-09T11:03:12;14.7;95
74458;SHT31;62896;51.032;3.712;2023-05-09T11:06:40;14.7;94
74458;SHT31;62896;51.032;3.712;2023-05-09T11:09:52;14.7;94
74458;SHT31;62896;51.032;3.712;2023-05-09T11:13:12;14.7;94
74458;SHT31;62896;51.032;3.712;2023-05-09T11:16:32;14.8;94
74458;SHT31;62896;51.032;3.712;2023-05-09T11:20:00;14.8;94
74458;SHT31;62896;51.032;3.712;2023-05-09T11:23:12;14.8;94
74458;SHT31;62896;51.032;3.712;2023-05-09T11:26:32;14.8;94
74458;SHT31;62896;51.032;3.712;2023-05-09T11:29:52;14.8;94
74458;SHT31;62896;51.032;3.712;2023-05-09T11:33:20;14.8;94
74458;SHT31;62896;51.032;3.712;2023-05-09T11:36:32;14.7;94
74458;SHT31;62896;51.032;3.712;2023-05-09T11:39:55;14.7;94
74458;SHT31;62896;51.032;3.712;2023-05-09T11:43:12;14.7;94
74458;SHT31;62896;51.032;3.712;2023-05-09T11:46:32;14.7;95
74458;SHT31;62896;51.032;3.712;2023-05-09T11:49:52;14.7;95
74458;SHT31;62896;51.032;3.712;2023-05-09T11:53:12;14.7;95
74458;SHT31;62896;51.032;3.712;2023-05-09T11:56:33;14.7;95
74458;SHT31;62896;51.032;3.712;2023-05-09T11:59:52;14.7;95
74458;SHT31;62896;51.032;3.712;2023-05-09T12:03:12;14.7;95
74458;SHT31;62896;51.032;3.712;2023-05-09T12:06:32;14.5;94
74458;SHT31;62896;51.032;3.712;2023-05-09T12:09:52;14.5;94
74458;SHT31;62896;51.032;3.712;2023-05-09T12:13:12;14.5;94
74458;SHT31;62896;51.032;3.712;2023-05-09T12:16:32;14.3;95
74458;SHT31;62896;51.032;3.712;2023-05-09T12:19:52;14.3;95
74458;SHT31;62896;51.032;3.712;2023-05-09T12:23:12;14.3;95
74458;SHT31;62896;51.032;3.712;2023-05-09T12:26:32;14.2;94
74458;SHT31;62896;51.032;3.712;2023-05-09T12:29:52;14.2;94
74458;SHT31;62896;51.032;3.712;2023-05-09T12:33:12;14.2;94
74458;SHT31;62896;51.032;3.712;2023-05-09T12:36:33;14.1;95
74458;SHT31;62896;51.032;3.712;2023-05-09T12:39:59;14.1;95
74458;SHT31;62896;51.032;3.712;2023-05-09T12:43:12;14.1;95
74458;SHT31;62896;51.032;3.712;2023-05-09T12:46:32;14.1;95
74458;SHT31;62896;51.032;3.712;2023-05-09T12:49:52;14.1;95
74458;SHT31;62896;51.032;3.712;2023-05-09T12:53:12;14.1;95
74458;SHT31;62896;51.032;3.712;2023-05-09T12:56:32;14.1;95
74458;SHT31;62896;51.032;3.712;2023-05-09T12:59:56;14.1;95
74458;SHT31;62896;51.032;3.712;2023-05-09T13:03:20;14.1;95
74458;SHT31;62896;51.032;3.712;2023-05-09T13:06:32;14.1;95
74458;SHT31;62896;51.032;3.712;2023-05-09T13:09:53;14.1;95
74458;SHT31;62896;51.032;3.712;2023-05-09T13:13:14;14.1;95
74458;SHT31;62896;51.032;3.712;2023-05-09T13:16:32;14;95
74458;SHT31;62896;51.032;3.712;2023-05-09T13:19:52;14;95
74458;SHT31;62896;51.032;3.712;2023-05-09T13:23:12;14;95
74458;SHT31;62896;51.032;3.712;2023-05-09T13:26:32;14.1;96
74458;SHT31;62896;51.032;3.712;2023-05-09T13:29:52;14.1;96
74458;SHT31;62896;51.032;3.712;2023-05-09T13:33:12;14.1;96
74458;SHT31;62896;51.032;3.712;2023-05-09T13:36:32;14.1;96
74458;SHT31;62896;51.032;3.712;2023-05-09T13:39:52;14.1;96
74458;SHT31;62896;51.032;3.712;2023-05-09T13:43:12;14.1;96
74458;SHT31;62896;51.032;3.712;2023-05-09T13:46:32;14.1;96
74458;SHT31;62896;51.032;3.712;2023-05-09T13:49:52;14.1;96
74458;SHT31;62896;51.032;3.712;2023-05-09T13:53:12;14.1;96
74458;SHT31;62896;51.032;3.712;2023-05-09T13:56:32;14.1;96
74458;SHT31;62896;51.032;3.712;2023-05-09T13:59:52;14.1;96
74458;SHT31;62896;51.032;3.712;2023-05-09T14:03:12;14.1;96
74458;SHT31;62896;51.032;3.712;2023-05-09T14:06:32;14;96
74458;SHT31;62896;51.032;3.712;2023-05-09T14:09:52;14;96
74458;SHT31;62896;51.032;3.712;2023-05-09T14:13:12;14;96
74458;SHT31;62896;51.032;3.712;2023-05-09T14:16:32;14.3;96
74458;SHT31;62896;51.032;3.712;2023-05-09T14:19:52;14.3;96
74458;SHT31;62896;51.032;3.712;2023-05-09T14:23:12;14.3;96
74458;SHT31;62896;51.032;3.712;2023-05-09T14:26:32;14.5;96
74458;SHT31;62896;51.032;3.712;2023-05-09T14:29:52;14.5;96
74458;SHT31;62896;51.032;3.712;2023-05-09T14:33:12;14.5;96
74458;SHT31;62896;51.032;3.712;2023-05-09T14:36:32;14.8;95
74458;SHT31;62896;51.032;3.712;2023-05-09T14:39:52;14.8;95
74458;SHT31;62896;51.032;3.712;2023-05-09T14:43:12;14.8;95
74458;SHT31;62896;51.032;3.712;2023-05-09T14:46:32;14.8;95
74458;SHT31;62896;51.032;3.712;2023-05-09T14:49:52;14.8;95
74458;SHT31;62896;51.032;3.712;2023-05-09T14:53:12;14.8;95
74458;SHT31;62896;51.032;3.712;2023-05-09T14:56:32;14.8;96
74458;SHT31;62896;51.032;3.712;2023-05-09T14:59:52;14.8;96
74458;SHT31;62896;51.032;3.712;2023-05-09T15:03:12;14.8;96
74458;SHT31;62896;51.032;3.712;2023-05-09T15:06:33;15;96
74458;SHT31;62896;51.032;3.712;2023-05-09T15:09:52;15;96
74458;SHT31;62896;51.032;3.712;2023-05-09T15:13:12;15;96
74458;SHT31;62896;51.032;3.712;2023-05-09T15:16:32;15.2;95
74458;SHT31;62896;51.032;3.712;2023-05-09T15:19:52;15.2;95
74458;SHT31;62896;51.032;3.712;2023-05-09T15:23:12;15.2;95
74458;SHT31;62896;51.032;3.712;2023-05-09T15:26:32;15.3;95
74458;SHT31;62896;51.032;3.712;2023-05-09T15:29:52;15.3;95
74458;SHT31;62896;51.032;3.712;2023-05-09T15:33:12;15.3;95
74458;SHT31;62896;51.032;3.712;2023-05-09T15:36:32;15.3;94
74458;SHT31;62896;51.032;3.712;2023-05-09T15:39:52;15.3;94
74458;SHT31;62896;51.032;3.712;2023-05-09T15:43:12;15.3;94
74458;SHT31;62896;51.032;3.712;2023-05-09T15:46:32;15.4;94
74458;SHT31;62896;51.032;3.712;2023-05-09T15:49:52;15.4;94
74458;SHT31;62896;51.032;3.712;2023-05-09T15:53:12;15.4;94
74458;SHT31;62896;51.032;3.712;2023-05-09T15:56:32;15.5;93
74458;SHT31;62896;51.032;3.712;2023-05-09T15:59:52;15.5;93
74458;SHT31;62896;51.032;3.712;2023-05-09T16:03:12;15.5;93
74458;SHT31;62896;51.032;3.712;2023-05-09T16:06:32;15.7;93
74458;SHT31;62896;51.032;3.712;2023-05-09T16:09:52;15.7;93
74458;SHT31;62896;51.032;3.712;2023-05-09T16:13:12;15.7;93
74458;SHT31;62896;51.032;3.712;2023-05-09T16:16:32;15.8;92
74458;SHT31;62896;51.032;3.712;2023-05-09T16:19:52;15.8;92
74458;SHT31;62896;51.032;3.712;2023-05-09T16:23:12;15.8;92
74458;SHT31;62896;51.032;3.712;2023-05-09T16:26:32;16;91
74458;SHT31;62896;51.032;3.712;2023-05-09T16:29:52;16;91
74458;SHT31;62896;51.032;3.712;2023-05-09T16:33:12;16;91
74458;SHT31;62896;51.032;3.712;2023-05-09T16:36:32;16.1;90
74458;SHT31;62896;51.032;3.712;2023-05-09T16:39:52;16.1;90
74458;SHT31;62896;51.032;3.712;2023-05-09T16:43:12;16.1;90
74458;SHT31;62896;51.032;3.712;2023-05-09T16:46:32;16;91
74458;SHT31;62896;51.032;3.712;2023-05-09T16:49:52;16;91
74458;SHT31;62896;51.032;3.712;2023-05-09T16:53:12;16;91
74458;SHT31;62896;51.032;3.712;2023-05-09T16:56:32;15.9;89
74458;SHT31;62896;51.032;3.712;2023-05-09T16:59:52;15.9;89
74458;SHT31;62896;51.032;3.712;2023-05-09T17:03:12;15.9;89
74458;SHT31;62896;51.032;3.712;2023-05-09T17:06:32;15.8;90
74458;SHT31;62896;51.032;3.712;2023-05-09T17:09:52;15.8;90
74458;SHT31;62896;51.032;3.712;2023-05-09T17:13:12;15.8;90
74458;SHT31;62896;51.032;3.712;2023-05-09T17:16:32;15.7;90
74458;SHT31;62896;51.032;3.712;2023-05-09T17:19:52;15.7;90
74458;SHT31;62896;51.032;3.712;2023-05-09T17:23:12;15.7;90
74458;SHT31;62896;51.032;3.712;2023-05-09T17:26:32;15.8;91
74458;SHT31;62896;51.032;3.712;2023-05-09T17:29:52;15.8;91
74458;SHT31;62896;51.032;3.712;2023-05-09T17:33:12;15.8;91
74458;SHT31;62896;51.032;3.712;2023-05-09T17:36:32;15.8;91
74458;SHT31;62896;51.032;3.712;2023-05-09T17:39:52;15.8;91
74458;SHT31;62896;51.032;3.712;2023-05-09T17:43:12;15.8;91
74458;SHT31;62896;51.032;3.712;2023-05-09T17:46:32;15.7;92
74458;SHT31;62896;51.032;3.712;2023-05-09T17:49:52;15.7;92
74458;SHT31;62896;51.032;3.712;2023-05-09T17:53:12;15.7;92
74458;SHT31;62896;51.032;3.712;2023-05-09T17:56:32;15.6;93
74458;SHT31;62896;51.032;3.712;2023-05-09T17:59:52;15.6;93
74458;SHT31;62896;51.032;3.712;2023-05-09T18:03:12;15.6;93
74458;SHT31;62896;51.032;3.712;2023-05-09T18:06:32;15.4;94
74458;SHT31;62896;51.032;3.712;2023-05-09T18:09:52;15.4;94
74458;SHT31;62896;51.032;3.712;2023-05-09T18:13:12;15.4;94
74458;SHT31;62896;51.032;3.712;2023-05-09T18:16:32;15;94
74458;SHT31;62896;51.032;3.712;2023-05-09T18:19:52;15;94
74458;SHT31;62896;51.032;3.712;2023-05-09T18:23:12;15;94
74458;SHT31;62896;51.032;3.712;2023-05-09T18:26:32;14.8;95
74458;SHT31;62896;51.032;3.712;2023-05-09T18:29:52;14.8;95
74458;SHT31;62896;51.032;3.712;2023-05-09T18:33:12;14.8;95
74458;SHT31;62896;51.032;3.712;2023-05-09T18:36:32;14.7;95
74458;SHT31;62896;51.032;3.712;2023-05-09T18:39:52;14.7;95
74458;SHT31;62896;51.032;3.712;2023-05-09T18:43:12;14.7;95
74458;SHT31;62896;51.032;3.712;2023-05-09T18:46:32;14.5;96
74458;SHT31;62896;51.032;3.712;2023-05-09T18:49:52;14.5;96
74458;SHT31;62896;51.032;3.712;2023-05-09T18:53:12;14.5;96
74458;SHT31;62896;51.032;3.712;2023-05-09T18:56:32;14.4;96
74458;SHT31;62896;51.032;3.712;2023-05-09T18:59:52;14.4;96
74458;SHT31;62896;51.032;3.712;2023-05-09T19:03:12;14.4;96
74458;SHT31;62896;51.032;3.712;2023-05-09T19:06:32;14.3;97
74458;SHT31;62896;51.032;3.712;2023-05-09T19:09:52;14.3;97
74458;SHT31;62896;51.032;3.712;2023-05-09T19:13:12;14.3;97
74458;SHT31;62896;51.032;3.712;2023-05-09T19:16:32;14.3;96
74458;SHT31;62896;51.032;3.712;2023-05-09T19:19:52;14.3;96
74458;SHT31;62896;51.032;3.712;2023-05-09T19:23:12;14.3;96
74458;SHT31;62896;51.032;3.712;2023-05-09T19:26:32;14.3;97
74458;SHT31;62896;51.032;3.712;2023-05-09T19:29:52;14.3;97
74458;SHT31;62896;51.032;3.712;2023-05-09T19:33:12;14.3;97
74458;SHT31;62896;51.032;3.712;2023-05-09T19:36:32;14.3;97
74458;SHT31;62896;51.032;3.712;2023-05-09T19:39:52;14.3;97
74458;SHT31;62896;51.032;3.712;2023-05-09T19:43:12;14.3;97
74458;SHT31;62896;51.032;3.712;2023-05-09T19:46:32;14.3;97
74458;SHT31;62896;51.032;3.712;2023-05-09T19:49:52;14.3;97
74458;SHT31;62896;51.032;3.712;2023-05-09T19:53:12;14.3;97
74458;SHT31;62896;51.032;3.712;2023-05-09T19:56:32;14.2;97
74458;SHT31;62896;51.032;3.712;2023-05-09T19:59:52;14.2;97
74458;SHT31;62896;51.032;3.712;2023-05-09T20:03:12;14.2;97
74458;SHT31;62896;51.032;3.712;2023-05-09T20:06:32;14.1;98
74458;SHT31;62896;51.032;3.712;2023-05-09T20:09:52;14.1;98
74458;SHT31;62896;51.032;3.712;2023-05-09T20:13:12;14.1;98
74458;SHT31;62896;51.032;3.712;2023-05-09T20:16:32;14;98
74458;SHT31;62896;51.032;3.712;2023-05-09T20:19:52;14;98
74458;SHT31;62896;51.032;3.712;2023-05-09T20:23:12;14;98
74458;SHT31;62896;51.032;3.712;2023-05-09T20:26:32;13.9;98
74458;SHT31;62896;51.032;3.712;2023-05-09T20:29:52;13.9;98
74458;SHT31;62896;51.032;3.712;2023-05-09T20:33:12;13.9;98
74458;SHT31;62896;51.032;3.712;2023-05-09T20:36:32;13.8;98
74458;SHT31;62896;51.032;3.712;2023-05-09T20:39:52;13.8;98
74458;SHT31;62896;51.032;3.712;2023-05-09T20:43:12;13.8;98
74458;SHT31;62896;51.032;3.712;2023-05-09T20:46:32;13.8;98
74458;SHT31;62896;51.032;3.712;2023-05-09T20:49:52;13.8;98
74458;SHT31;62896;51.032;3.712;2023-05-09T20:53:12;13.8;98
74458;SHT31;62896;51.032;3.712;2023-05-09T20:56:32;13.8;99
74458;SHT31;62896;51.032;3.712;2023-05-09T20:59:52;13.8;99
74458;SHT31;62896;51.032;3.712;2023-05-09T21:03:12;13.8;99
74458;SHT31;62896;51.032;3.712;2023-05-09T21:06:32;13.7;98
74458;SHT31;62896;51.032;3.712;2023-05-09T21:09:52;13.7;98
74458;SHT31;62896;51.032;3.712;2023-05-09T21:13:12;13.7;98
74458;SHT31;62896;51.032;3.712;2023-05-09T21:16:32;13.5;98
74458;SHT31;62896;51.032;3.712;2023-05-09T21:19:52;13.5;98
74458;SHT31;62896;51.032;3.712;2023-05-09T21:23:12;13.5;98
74458;SHT31;62896;51.032;3.712;2023-05-09T21:26:32;13.5;96
74458;SHT31;62896;51.032;3.712;2023-05-09T21:29:52;13.5;96
74458;SHT31;62896;51.032;3.712;2023-05-09T21:33:12;13.5;96
74458;SHT31;62896;51.032;3.712;2023-05-09T21:36:32;13.5;96
74458;SHT31;62896;51.032;3.712;2023-05-09T21:39:52;13.5;96
74458;SHT31;62896;51.032;3.712;2023-05-09T21:43:13;13.5;96
74458;SHT31;62896;51.032;3.712;2023-05-09T21:46:32;13.4;96
74458;SHT31;62896;51.032;3.712;2023-05-09T21:49:52;13.4;96
74458;SHT31;62896;51.032;3.712;2023-05-09T21:53:12;13.4;96
74458;SHT31;62896;51.032;3.712;2023-05-09T21:56:32;13.3;96
74458;SHT31;62896;51.032;3.712;2023-05-09T21:59:52;13.3;96
74458;SHT31;62896;51.032;3.712;2023-05-09T22:03:12;13.3;96
74458;SHT31;62896;51.032;3.712;2023-05-09T22:06:32;13.3;96
74458;SHT31;62896;51.032;3.712;2023-05-09T22:09:52;13.3;96
74458;SHT31;62896;51.032;3.712;2023-05-09T22:13:12;13.3;96
74458;SHT31;62896;51.032;3.712;2023-05-09T22:16:32;13.2;96
74458;SHT31;62896;51.032;3.712;2023-05-09T22:19:52;13.2;96
74458;SHT31;62896;51.032;3.712;2023-05-09T22:23:12;13.2;96
74458;SHT31;62896;51.032;3.712;2023-05-09T22:26:32;13.2;96
74458;SHT31;62896;51.032;3.712;2023-05-09T22:29:52;13.2;96
74458;SHT31;62896;51.032;3.712;2023-05-09T22:33:12;13.2;96